createdAt,value
2018-04-04T00:00:08.653Z,981.22
2018-04-04T00:01:08.614Z,981.20
2018-04-04T00:02:08.609Z,981.21
2018-04-04T00:03:08.603Z,981.21
2018-04-04T00:04:08.594Z,981.20
2018-04-04T00:05:08.588Z,981.23
2018-04-04T00:06:08.584Z,981.17
2018-04-04T00:07:08.582Z,981.25
2018-04-04T00:08:08.575Z,981.24
2018-04-04T00:09:08.564Z,981.28
2018-04-04T00:10:08.561Z,981.26
2018-04-04T00:11:08.555Z,981.29
2018-04-04T00:12:08.547Z,981.34
2018-04-04T00:13:08.544Z,981.35
2018-04-04T00:14:08.536Z,981.32
2018-04-04T00:15:08.539Z,981.28
2018-04-04T00:16:08.524Z,981.28
2018-04-04T00:17:08.517Z,981.33
2018-04-04T00:18:08.514Z,981.32
2018-04-04T00:19:08.506Z,981.40
2018-04-04T00:20:08.500Z,981.47
2018-04-04T00:21:08.497Z,981.40
2018-04-04T00:22:08.487Z,981.41
2018-04-04T00:23:08.499Z,981.46
2018-04-04T00:24:08.480Z,981.44
2018-04-04T00:25:08.471Z,981.43
2018-04-04T00:26:08.466Z,981.41
2018-04-04T00:27:08.459Z,981.41
2018-04-04T00:28:08.455Z,981.39
2018-04-04T00:29:08.457Z,981.32
2018-04-04T00:30:08.442Z,981.35
2018-04-04T00:31:08.443Z,981.29
2018-04-04T00:32:08.430Z,981.34
2018-04-04T00:33:08.425Z,981.34
2018-04-04T00:34:08.419Z,981.25
2018-04-04T00:35:08.414Z,981.25
2018-04-04T00:36:08.406Z,981.18
2018-04-04T00:37:08.400Z,981.22
2018-04-04T00:38:08.396Z,981.22
2018-04-04T00:39:08.399Z,981.23
2018-04-04T00:40:08.382Z,981.24
2018-04-04T00:41:08.378Z,981.25
2018-04-04T00:42:08.375Z,981.32
2018-04-04T00:43:08.373Z,981.37
2018-04-04T00:44:08.360Z,981.37
2018-04-04T00:45:08.360Z,981.37
2018-04-04T00:46:08.352Z,981.38
2018-04-04T00:47:08.341Z,981.36
2018-04-04T00:48:08.334Z,981.36
2018-04-04T00:49:08.331Z,981.40
2018-04-04T00:50:08.324Z,981.38
2018-04-04T00:51:08.321Z,981.41
2018-04-04T00:52:08.313Z,981.44
2018-04-04T00:53:08.311Z,981.43
2018-04-04T00:54:08.300Z,981.48
2018-04-04T00:55:08.296Z,981.48
2018-04-04T00:56:08.295Z,981.48
2018-04-04T00:57:08.282Z,981.48
2018-04-04T00:58:08.277Z,981.43
2018-04-04T00:59:08.271Z,981.46
2018-04-04T01:00:08.266Z,981.43
2018-04-04T01:01:08.265Z,981.50
2018-04-04T01:02:08.255Z,981.47
2018-04-04T01:03:08.249Z,981.48
2018-04-04T01:04:08.243Z,981.54
2018-04-04T01:05:08.240Z,981.58
2018-04-04T01:06:08.228Z,981.53
2018-04-04T01:07:08.225Z,981.54
2018-04-04T01:08:08.221Z,981.48
2018-04-04T01:09:08.216Z,981.47
2018-04-04T01:10:08.207Z,981.45
2018-04-04T01:11:08.205Z,981.44
2018-04-04T01:12:08.193Z,981.44
2018-04-04T01:13:08.191Z,981.46
2018-04-04T01:14:08.182Z,981.48
2018-04-04T01:15:08.175Z,981.46
2018-04-04T01:16:08.175Z,981.46
2018-04-04T01:17:08.173Z,981.43
2018-04-04T01:18:08.162Z,981.48
2018-04-04T01:19:08.154Z,981.46
2018-04-04T01:20:08.151Z,981.46
2018-04-04T01:21:08.142Z,981.42
2018-04-04T01:22:08.136Z,981.46
2018-04-04T01:23:08.130Z,981.46
2018-04-04T01:24:08.124Z,981.49
2018-04-04T01:25:08.118Z,981.43
2018-04-04T01:26:08.112Z,981.47
2018-04-04T01:27:08.111Z,981.46
2018-04-04T01:28:08.099Z,981.46
2018-04-04T01:29:08.094Z,981.45
2018-04-04T01:30:08.085Z,981.45
2018-04-04T01:31:08.085Z,981.47
2018-04-04T01:32:08.077Z,981.49
2018-04-04T01:33:08.070Z,981.47
2018-04-04T01:34:08.073Z,981.49
2018-04-04T01:35:08.058Z,981.49
2018-04-04T01:36:08.053Z,981.52
2018-04-04T01:37:08.047Z,981.51
2018-04-04T01:38:08.039Z,981.45
2018-04-04T01:39:08.035Z,981.49
2018-04-04T01:40:08.029Z,981.46
2018-04-04T01:41:08.031Z,981.42
2018-04-04T01:42:08.024Z,981.44
2018-04-04T01:43:08.017Z,981.47
2018-04-04T01:44:08.003Z,981.47
2018-04-04T01:45:07.996Z,981.47
2018-04-04T01:46:07.997Z,981.50
2018-04-04T01:47:07.993Z,981.51
2018-04-04T01:48:07.982Z,981.50
2018-04-04T01:49:07.981Z,981.46
2018-04-04T01:50:07.974Z,981.46
2018-04-04T01:51:07.966Z,981.41
2018-04-04T01:52:07.961Z,981.47
2018-04-04T01:53:07.952Z,981.43
2018-04-04T01:54:07.945Z,981.39
2018-04-04T01:55:07.940Z,981.37
2018-04-04T01:56:07.936Z,981.34
2018-04-04T01:57:07.938Z,981.34
2018-04-04T01:58:07.924Z,981.34
2018-04-04T01:59:07.917Z,981.30
2018-04-04T02:00:07.909Z,981.30
2018-04-04T02:01:07.907Z,981.29
2018-04-04T02:02:07.897Z,981.29
2018-04-04T02:03:07.894Z,981.31
2018-04-04T02:04:07.889Z,981.31
2018-04-04T02:05:07.887Z,981.29
2018-04-04T02:06:07.875Z,981.30
2018-04-04T02:07:07.869Z,981.30
2018-04-04T02:08:07.863Z,981.30
2018-04-04T02:09:07.857Z,981.28
2018-04-04T02:10:07.848Z,981.33
2018-04-04T02:11:07.845Z,981.30
2018-04-04T02:12:07.841Z,981.31
2018-04-04T02:13:07.845Z,981.33
2018-04-04T02:14:07.828Z,981.33
2018-04-04T02:15:07.823Z,981.33
2018-04-04T02:16:07.816Z,981.31
2018-04-04T02:17:07.809Z,981.32
2018-04-04T02:18:07.803Z,981.35
2018-04-04T02:19:07.800Z,981.34
2018-04-04T02:20:07.796Z,981.41
2018-04-04T02:21:07.790Z,981.35
2018-04-04T02:22:07.782Z,981.37
2018-04-04T02:23:07.775Z,981.33
2018-04-04T02:24:07.772Z,981.35
2018-04-04T02:25:07.760Z,981.33
2018-04-04T02:26:07.757Z,981.32
2018-04-04T02:27:07.750Z,981.28
2018-04-04T02:28:07.745Z,981.26
2018-04-04T02:29:07.744Z,981.25
2018-04-04T02:30:07.745Z,981.26
2018-04-04T02:31:07.726Z,981.23
2018-04-04T02:32:07.775Z,981.27
2018-04-04T02:33:07.711Z,981.29
2018-04-04T02:34:07.710Z,981.34
2018-04-04T02:35:07.700Z,981.34
2018-04-04T02:36:07.700Z,981.39
2018-04-04T02:37:07.694Z,981.38
2018-04-04T02:38:07.687Z,981.32
2018-04-04T02:39:07.678Z,981.30
2018-04-04T02:40:07.672Z,981.33
2018-04-04T02:41:07.668Z,981.34
2018-04-04T02:42:07.662Z,981.34
2018-04-04T02:43:07.652Z,981.28
2018-04-04T02:44:07.647Z,981.24
2018-04-04T02:45:07.667Z,981.19
2018-04-04T02:46:07.644Z,981.14
2018-04-04T02:47:07.630Z,981.13
2018-04-04T02:48:07.629Z,981.11
2018-04-04T02:49:07.619Z,981.15
2018-04-04T02:50:07.613Z,981.16
2018-04-04T02:51:07.608Z,981.23
2018-04-04T02:52:07.602Z,981.22
2018-04-04T02:53:07.593Z,981.27
2018-04-04T02:54:07.599Z,981.24
2018-04-04T02:55:07.584Z,981.25
2018-04-04T02:56:07.575Z,981.25
2018-04-04T02:57:07.568Z,981.25
2018-04-04T02:58:07.570Z,981.34
2018-04-04T02:59:07.557Z,981.34
2018-04-04T03:00:07.555Z,981.33
2018-04-04T03:01:07.546Z,981.32
2018-04-04T03:02:07.540Z,981.34
2018-04-04T03:03:07.536Z,981.29
2018-04-04T03:04:07.586Z,981.26
2018-04-04T03:05:07.527Z,981.27
2018-04-04T03:06:07.516Z,981.30
2018-04-04T03:07:07.510Z,981.35
2018-04-04T03:08:07.503Z,981.35
2018-04-04T03:09:07.497Z,981.32
2018-04-04T03:10:07.550Z,981.31
2018-04-04T03:11:07.485Z,981.27
2018-04-04T03:12:07.482Z,981.20
2018-04-04T03:13:07.473Z,981.17
2018-04-04T03:14:07.467Z,981.15
2018-04-04T03:15:07.468Z,981.11
2018-04-04T03:16:07.457Z,981.14
2018-04-04T03:17:07.450Z,981.16
2018-04-04T03:18:07.446Z,981.20
2018-04-04T03:19:07.437Z,981.25
2018-04-04T03:20:07.435Z,981.30
2018-04-04T03:21:07.426Z,981.25
2018-04-04T03:22:07.422Z,981.25
2018-04-04T03:23:07.415Z,981.31
2018-04-04T03:24:07.408Z,981.30
2018-04-04T03:25:07.405Z,981.34
2018-04-04T03:26:07.405Z,981.35
2018-04-04T03:27:07.393Z,981.40
2018-04-04T03:28:07.385Z,981.37
2018-04-04T03:29:07.377Z,981.37
2018-04-04T03:30:07.375Z,981.34
2018-04-04T03:31:07.382Z,981.40
2018-04-04T03:32:07.360Z,981.40
2018-04-04T03:33:07.404Z,981.39
2018-04-04T03:34:07.348Z,981.38
2018-04-04T03:35:07.345Z,981.37
2018-04-04T03:36:07.337Z,981.33
2018-04-04T03:37:07.328Z,981.31
2018-04-04T03:38:07.326Z,981.29
2018-04-04T03:39:07.320Z,981.20
2018-04-04T03:40:07.318Z,981.25
2018-04-04T03:41:07.307Z,981.24
2018-04-04T03:42:07.301Z,981.21
2018-04-04T03:43:07.300Z,981.25
2018-04-04T03:44:07.289Z,981.24
2018-04-04T03:45:07.280Z,981.23
2018-04-04T03:46:07.278Z,981.22
2018-04-04T03:47:07.270Z,981.19
2018-04-04T03:48:07.274Z,981.15
2018-04-04T03:49:07.259Z,981.09
2018-04-04T03:50:07.255Z,981.07
2018-04-04T03:51:07.246Z,981.04
2018-04-04T03:52:07.241Z,981.00
2018-04-04T03:53:07.232Z,980.98
2018-04-04T03:54:07.230Z,980.95
2018-04-04T03:55:07.221Z,981.01
2018-04-04T03:56:07.213Z,981.02
2018-04-04T03:57:07.208Z,981.05
2018-04-04T03:58:07.209Z,981.04
2018-04-04T03:59:07.192Z,981.02
2018-04-04T04:00:07.189Z,980.99
2018-04-04T04:01:07.182Z,980.96
2018-04-04T04:02:07.172Z,980.95
2018-04-04T04:03:07.169Z,980.92
2018-04-04T04:04:07.160Z,980.90
2018-04-04T04:05:07.150Z,980.96
2018-04-04T04:06:07.151Z,980.90
2018-04-04T04:07:07.163Z,980.89
2018-04-04T04:08:07.131Z,980.92
2018-04-04T04:09:07.123Z,980.86
2018-04-04T04:10:07.145Z,980.84
2018-04-04T04:11:07.110Z,980.87
2018-04-04T04:12:07.101Z,980.91
2018-04-04T04:13:07.104Z,980.94
2018-04-04T04:14:07.088Z,980.97
2018-04-04T04:15:07.081Z,981.02
2018-04-04T04:16:07.074Z,981.00
2018-04-04T04:17:07.067Z,981.06
2018-04-04T04:18:07.057Z,981.07
2018-04-04T04:19:07.051Z,981.10
2018-04-04T04:20:07.046Z,981.10
2018-04-04T04:21:07.038Z,981.14
2018-04-04T04:22:07.028Z,981.09
2018-04-04T04:23:07.022Z,981.10
2018-04-04T04:24:07.020Z,981.11
2018-04-04T04:25:07.006Z,981.11
2018-04-04T04:26:07.000Z,981.12
2018-04-04T04:27:06.995Z,981.09
2018-04-04T04:28:06.988Z,981.10
2018-04-04T04:29:06.978Z,981.06
2018-04-04T04:30:06.967Z,981.07
2018-04-04T04:31:06.964Z,981.09
2018-04-04T04:32:06.955Z,981.05
2018-04-04T04:33:06.952Z,981.06
2018-04-04T04:34:06.942Z,981.09
2018-04-04T04:35:06.935Z,981.10
2018-04-04T04:36:06.925Z,981.05
2018-04-04T04:37:06.918Z,981.08
2018-04-04T04:38:06.910Z,981.08
2018-04-04T04:39:06.904Z,981.06
2018-04-04T04:40:06.895Z,981.04
2018-04-04T04:41:06.888Z,981.01
2018-04-04T04:42:06.881Z,981.00
2018-04-04T04:43:06.875Z,980.99
2018-04-04T04:44:06.864Z,980.98
2018-04-04T04:45:06.864Z,980.98
2018-04-04T04:46:06.859Z,980.94
2018-04-04T04:47:06.842Z,980.91
2018-04-04T04:48:06.833Z,980.90
2018-04-04T04:49:06.831Z,980.90
2018-04-04T04:50:06.838Z,980.89
2018-04-04T04:51:06.812Z,980.88
2018-04-04T04:52:06.819Z,980.87
2018-04-04T04:53:06.803Z,980.93
2018-04-04T04:54:06.791Z,980.94
2018-04-04T04:55:06.785Z,981.03
2018-04-04T04:56:06.776Z,981.10
2018-04-04T04:57:06.778Z,981.15
2018-04-04T04:58:06.762Z,981.20
2018-04-04T04:59:06.751Z,981.13
2018-04-04T05:00:06.747Z,981.13
2018-04-04T05:01:06.741Z,981.08
2018-04-04T05:02:06.736Z,981.05
2018-04-04T05:03:06.729Z,981.04
2018-04-04T05:04:06.723Z,980.98
2018-04-04T05:05:06.709Z,981.02
2018-04-04T05:06:06.700Z,981.01
2018-04-04T05:07:06.693Z,981.05
2018-04-04T05:08:06.695Z,981.08
2018-04-04T05:09:06.678Z,981.14
2018-04-04T05:10:06.670Z,981.09
2018-04-04T05:11:06.665Z,981.14
2018-04-04T05:12:06.657Z,981.11
2018-04-04T05:13:06.646Z,981.11
2018-04-04T05:14:06.642Z,981.07
2018-04-04T05:15:06.634Z,981.09
2018-04-04T05:16:06.631Z,981.06
2018-04-04T05:17:06.622Z,981.05
2018-04-04T05:18:06.612Z,981.00
2018-04-04T05:19:06.607Z,980.98
2018-04-04T05:20:06.598Z,980.93
2018-04-04T05:21:06.597Z,980.91
2018-04-04T05:22:06.588Z,980.82
2018-04-04T05:23:06.575Z,980.81
2018-04-04T05:24:06.569Z,980.81
2018-04-04T05:25:06.564Z,980.83
2018-04-04T05:26:06.551Z,980.85
2018-04-04T05:27:06.544Z,980.90
2018-04-04T05:28:06.567Z,980.90
2018-04-04T05:29:06.566Z,980.95
2018-04-04T05:30:06.523Z,980.88
2018-04-04T05:31:06.513Z,980.88
2018-04-04T05:32:06.506Z,980.90
2018-04-04T05:33:06.500Z,980.87
2018-04-04T05:34:06.491Z,980.87
2018-04-04T05:35:06.484Z,980.87
2018-04-04T05:36:06.474Z,980.82
2018-04-04T05:37:06.468Z,980.89
2018-04-04T05:38:06.462Z,980.89
2018-04-04T05:39:06.455Z,980.92
2018-04-04T05:40:06.461Z,980.88
2018-04-04T05:41:06.441Z,980.87
2018-04-04T05:42:06.431Z,980.91
2018-04-04T05:43:06.492Z,980.86
2018-04-04T05:44:06.412Z,980.83
2018-04-04T05:45:06.408Z,980.79
2018-04-04T05:46:06.462Z,980.72
2018-04-04T05:47:06.394Z,980.67
2018-04-04T05:48:06.385Z,980.60
2018-04-04T05:49:06.379Z,980.63
2018-04-04T05:50:06.370Z,980.65
2018-04-04T05:51:06.363Z,980.68
2018-04-04T05:52:06.354Z,980.65
2018-04-04T05:53:06.381Z,980.63
2018-04-04T05:54:06.345Z,980.55
2018-04-04T05:55:06.335Z,980.43
2018-04-04T05:56:06.319Z,980.36
2018-04-04T05:57:06.324Z,980.35
2018-04-04T05:58:06.315Z,980.36
2018-04-04T05:59:06.306Z,980.41
2018-04-04T06:00:06.295Z,980.39
2018-04-04T06:01:06.288Z,980.39
2018-04-04T06:02:06.280Z,980.42
2018-04-04T06:03:06.273Z,980.41
2018-04-04T06:04:06.265Z,980.45
2018-04-04T06:05:06.256Z,980.56
2018-04-04T06:06:06.250Z,980.48
2018-04-04T06:07:06.251Z,980.58
2018-04-04T06:08:06.235Z,980.65
2018-04-04T06:09:06.228Z,980.71
2018-04-04T06:10:06.255Z,980.78
2018-04-04T06:11:06.212Z,980.81
2018-04-04T06:12:06.209Z,980.88
2018-04-04T06:13:06.199Z,980.98
2018-04-04T06:14:06.194Z,981.04
2018-04-04T06:15:06.184Z,981.09
2018-04-04T06:16:06.175Z,981.01
2018-04-04T06:17:06.166Z,981.07
2018-04-04T06:18:06.158Z,981.05
2018-04-04T06:19:06.152Z,981.06
2018-04-04T06:20:06.154Z,981.02
2018-04-04T06:21:06.137Z,981.12
2018-04-04T06:22:06.131Z,981.13
2018-04-04T06:23:06.124Z,981.11
2018-04-04T06:24:06.112Z,981.06
2018-04-04T06:25:06.110Z,981.09
2018-04-04T06:26:06.098Z,981.04
2018-04-04T06:27:06.089Z,981.01
2018-04-04T06:28:06.086Z,981.07
2018-04-04T06:29:06.074Z,981.11
2018-04-04T06:30:06.069Z,981.02
2018-04-04T06:31:06.065Z,981.09
2018-04-04T06:32:06.056Z,981.03
2018-04-04T06:33:06.048Z,980.99
2018-04-04T06:34:06.040Z,981.07
2018-04-04T06:35:06.032Z,981.05
2018-04-04T06:36:06.021Z,980.98
2018-04-04T06:37:06.016Z,980.92
2018-04-04T06:38:06.014Z,980.92
2018-04-04T06:39:06.000Z,980.99
2018-04-04T06:40:05.993Z,980.95
2018-04-04T06:41:05.987Z,981.00
2018-04-04T06:42:05.978Z,980.99
2018-04-04T06:43:06.129Z,980.97
2018-04-04T06:44:05.963Z,981.05
2018-04-04T06:45:05.955Z,981.05
2018-04-04T06:46:05.949Z,981.03
2018-04-04T06:47:05.941Z,981.06
2018-04-04T06:48:05.930Z,981.12
2018-04-04T06:49:05.926Z,981.10
2018-04-04T06:50:05.918Z,981.08
2018-04-04T06:51:05.910Z,981.07
2018-04-04T06:52:05.906Z,981.04
2018-04-04T06:53:05.899Z,981.04
2018-04-04T06:54:05.885Z,980.97
2018-04-04T06:55:05.878Z,980.99
2018-04-04T06:56:05.872Z,980.93
2018-04-04T06:57:05.870Z,980.89
2018-04-04T06:58:05.858Z,980.90
2018-04-04T06:59:05.854Z,980.92
2018-04-04T07:00:05.840Z,980.93
2018-04-04T07:01:05.834Z,980.98
2018-04-04T07:02:05.827Z,980.94
2018-04-04T07:03:05.829Z,980.95
2018-04-04T07:04:05.810Z,980.88
2018-04-04T07:05:05.802Z,980.87
2018-04-04T07:06:05.798Z,980.99
2018-04-04T07:07:05.788Z,981.00
2018-04-04T07:08:05.784Z,980.94
2018-04-04T07:09:05.772Z,980.88
2018-04-04T07:10:05.776Z,980.96
2018-04-04T07:11:05.760Z,980.92
2018-04-04T07:12:05.748Z,980.95
2018-04-04T07:13:05.745Z,980.92
2018-04-04T07:14:05.733Z,980.85
2018-04-04T07:15:05.727Z,980.81
2018-04-04T07:16:05.722Z,980.88
2018-04-04T07:17:05.712Z,980.86
2018-04-04T07:18:05.704Z,980.86
2018-04-04T07:19:05.701Z,980.87
2018-04-04T07:20:05.689Z,980.86
2018-04-04T07:21:05.681Z,980.84
2018-04-04T07:22:05.674Z,980.88
2018-04-04T07:23:05.666Z,980.81
2018-04-04T07:24:05.663Z,980.81
2018-04-04T07:25:05.652Z,980.81
2018-04-04T07:26:05.642Z,980.81
2018-04-04T07:27:05.637Z,980.89
2018-04-04T07:28:05.626Z,980.87
2018-04-04T07:29:05.626Z,980.89
2018-04-04T07:30:05.612Z,980.89
2018-04-04T07:31:05.613Z,980.92
2018-04-04T07:32:05.601Z,980.79
2018-04-04T07:33:05.590Z,980.84
2018-04-04T07:34:05.586Z,980.93
2018-04-04T07:35:05.577Z,980.93
2018-04-04T07:36:05.613Z,980.94
2018-04-04T07:37:05.561Z,980.92
2018-04-04T07:38:05.552Z,980.88
2018-04-04T07:39:05.547Z,980.82
2018-04-04T07:40:05.536Z,980.87
2018-04-04T07:41:05.537Z,980.88
2018-04-04T07:42:05.527Z,980.86
2018-04-04T07:43:05.515Z,980.89
2018-04-04T07:44:05.508Z,980.86
2018-04-04T07:45:05.500Z,980.83
2018-04-04T07:46:05.493Z,980.79
2018-04-04T07:47:05.488Z,980.74
2018-04-04T07:48:05.480Z,980.81
2018-04-04T07:49:05.470Z,980.71
2018-04-04T07:50:05.469Z,980.84
2018-04-04T07:51:05.462Z,980.80
2018-04-04T07:52:05.450Z,980.80
2018-04-04T07:53:05.441Z,980.84
2018-04-04T07:54:05.434Z,980.80
2018-04-04T07:55:05.430Z,980.73
2018-04-04T07:56:05.416Z,980.73
2018-04-04T07:57:05.412Z,980.70
2018-04-04T07:58:05.403Z,980.79
2018-04-04T07:59:05.396Z,980.91
2018-04-04T08:00:05.387Z,980.88
2018-04-04T08:01:05.381Z,980.88
2018-04-04T08:02:05.374Z,980.91
2018-04-04T08:03:05.372Z,980.86
2018-04-04T08:04:05.352Z,980.89
2018-04-04T08:05:05.353Z,980.96
2018-04-04T08:06:05.347Z,981.03
2018-04-04T08:07:05.337Z,981.11
2018-04-04T08:08:05.332Z,981.12
2018-04-04T08:09:05.322Z,981.08
2018-04-04T08:10:05.315Z,981.06
2018-04-04T08:11:05.307Z,981.11
2018-04-04T08:12:05.297Z,981.15
2018-04-04T08:13:05.292Z,981.18
2018-04-04T08:14:05.311Z,981.17
2018-04-04T08:15:05.278Z,981.11
2018-04-04T08:16:05.268Z,981.08
2018-04-04T08:17:05.263Z,981.04
2018-04-04T08:18:05.258Z,981.03
2018-04-04T08:19:05.253Z,980.94
2018-04-04T08:20:05.240Z,980.94
2018-04-04T08:21:05.235Z,980.89
2018-04-04T08:22:05.225Z,980.93
2018-04-04T08:23:05.218Z,980.95
2018-04-04T08:24:05.211Z,980.99
2018-04-04T08:25:05.202Z,981.03
2018-04-04T08:26:05.206Z,981.04
2018-04-04T08:27:05.190Z,981.07
2018-04-04T08:28:05.236Z,981.06
2018-04-04T08:29:05.174Z,981.13
2018-04-04T08:30:05.166Z,981.10
2018-04-04T08:31:05.159Z,981.07
2018-04-04T08:32:05.148Z,981.07
2018-04-04T08:33:05.143Z,981.07
2018-04-04T08:34:05.140Z,981.05
2018-04-04T08:35:05.133Z,981.02
2018-04-04T08:36:05.119Z,980.96
2018-04-04T08:37:05.113Z,980.93
2018-04-04T08:38:05.106Z,980.94
2018-04-04T08:39:05.101Z,980.91
2018-04-04T08:40:05.092Z,980.95
2018-04-04T08:41:05.083Z,980.95
2018-04-04T08:42:05.082Z,980.96
2018-04-04T08:43:05.071Z,980.94
2018-04-04T08:44:05.062Z,980.96
2018-04-04T08:45:05.052Z,981.00
2018-04-04T08:46:05.046Z,981.00
2018-04-04T08:47:05.051Z,981.01
2018-04-04T08:48:05.032Z,980.99
2018-04-04T08:49:05.026Z,980.99
2018-04-04T08:50:05.015Z,980.92
2018-04-04T08:51:05.009Z,980.93
2018-04-04T08:52:05.003Z,980.94
2018-04-04T08:53:04.996Z,980.96
2018-04-04T08:54:04.995Z,981.00
2018-04-04T08:55:04.982Z,981.02
2018-04-04T08:56:04.973Z,980.97
2018-04-04T08:57:04.966Z,981.01
2018-04-04T08:58:04.957Z,981.02
2018-04-04T08:59:04.951Z,980.98
2018-04-04T09:00:04.945Z,980.98
2018-04-04T09:01:04.936Z,980.99
2018-04-04T09:02:04.933Z,980.95
2018-04-04T09:03:04.928Z,980.91
2018-04-04T09:04:04.920Z,980.88
2018-04-04T09:05:04.907Z,980.86
2018-04-04T09:06:04.904Z,980.84
2018-04-04T09:07:04.895Z,980.85
2018-04-04T09:08:04.888Z,980.83
2018-04-04T09:09:04.886Z,980.90
2018-04-04T09:10:04.874Z,980.92
2018-04-04T09:11:04.868Z,980.93
2018-04-04T09:12:04.857Z,980.92
2018-04-04T09:13:04.853Z,980.95
2018-04-04T09:14:04.848Z,980.93
2018-04-04T09:15:04.843Z,980.93
2018-04-04T09:16:04.830Z,980.91
2018-04-04T09:17:04.825Z,980.86
2018-04-04T09:18:04.819Z,980.84
2018-04-04T09:19:04.810Z,980.85
2018-04-04T09:20:04.814Z,980.80
2018-04-04T09:21:04.800Z,980.80
2018-04-04T09:22:04.791Z,980.71
2018-04-04T09:23:04.780Z,980.73
2018-04-04T09:24:04.775Z,980.75
2018-04-04T09:25:04.763Z,980.76
2018-04-04T09:26:04.763Z,980.74
2018-04-04T09:27:04.756Z,980.75
2018-04-04T09:28:04.751Z,980.72
2018-04-04T09:29:04.739Z,980.70
2018-04-04T09:30:04.751Z,980.70
2018-04-04T09:31:04.725Z,980.68
2018-04-04T09:32:04.719Z,980.68
2018-04-04T09:33:04.711Z,980.67
2018-04-04T09:34:04.702Z,980.64
2018-04-04T09:35:04.699Z,980.59
2018-04-04T09:36:04.694Z,980.56
2018-04-04T09:37:04.684Z,980.58
2018-04-04T09:38:04.676Z,980.59
2018-04-04T09:39:04.668Z,980.61
2018-04-04T09:40:04.662Z,980.65
2018-04-04T09:41:04.656Z,980.63
2018-04-04T09:42:04.646Z,980.62
2018-04-04T09:43:04.642Z,980.62
2018-04-04T09:44:04.634Z,980.62
2018-04-04T09:45:04.631Z,980.59
2018-04-04T09:46:04.625Z,980.62
2018-04-04T09:47:04.619Z,980.59
2018-04-04T09:48:04.606Z,980.57
2018-04-04T09:49:04.598Z,980.51
2018-04-04T09:50:04.597Z,980.53
2018-04-04T09:51:04.611Z,980.52
2018-04-04T09:52:04.578Z,980.52
2018-04-04T09:53:04.569Z,980.46
2018-04-04T09:54:04.563Z,980.44
2018-04-04T09:55:04.558Z,980.42
2018-04-04T09:56:04.548Z,980.38
2018-04-04T09:57:04.542Z,980.37
2018-04-04T09:58:04.535Z,980.34
2018-04-04T09:59:04.526Z,980.34
2018-04-04T10:00:04.522Z,980.33
2018-04-04T10:01:04.512Z,980.33
2018-04-04T10:02:04.512Z,980.24
2018-04-04T10:03:04.498Z,980.17
2018-04-04T10:04:04.493Z,980.16
2018-04-04T10:05:04.491Z,980.15
2018-04-04T10:06:04.477Z,980.15
2018-04-04T10:07:04.471Z,980.15
2018-04-04T10:08:04.465Z,980.17
2018-04-04T10:09:04.462Z,980.12
2018-04-04T10:10:04.453Z,980.14
2018-04-04T10:11:04.447Z,980.10
2018-04-04T10:12:04.435Z,980.13
2018-04-04T10:13:04.431Z,980.09
2018-04-04T10:14:04.429Z,980.11
2018-04-04T10:15:04.416Z,980.17
2018-04-04T10:16:04.416Z,980.11
2018-04-04T10:17:04.406Z,980.04
2018-04-04T10:18:04.397Z,980.06
2018-04-04T10:19:04.390Z,980.06
2018-04-04T10:20:04.383Z,980.06
2018-04-04T10:21:04.377Z,980.00
2018-04-04T10:22:04.374Z,979.96
2018-04-04T10:23:04.369Z,979.95
2018-04-04T10:24:04.355Z,979.95
2018-04-04T10:25:04.356Z,979.88
2018-04-04T10:26:04.346Z,979.86
2018-04-04T10:27:04.350Z,979.84
2018-04-04T10:28:04.327Z,979.79
2018-04-04T10:29:04.322Z,979.66
2018-04-04T10:30:04.314Z,979.64
2018-04-04T10:31:04.310Z,979.66
2018-04-04T10:32:04.303Z,979.65
2018-04-04T10:33:04.296Z,979.68
2018-04-04T10:34:04.283Z,979.64
2018-04-04T10:35:04.280Z,979.56
2018-04-04T10:36:04.272Z,979.51
2018-04-04T10:37:04.271Z,979.45
2018-04-04T10:38:04.259Z,979.44
2018-04-04T10:39:04.253Z,979.41
2018-04-04T10:40:04.246Z,979.39
2018-04-04T10:41:04.240Z,979.33
2018-04-04T10:42:04.231Z,979.29
2018-04-04T10:43:04.226Z,979.25
2018-04-04T10:44:04.220Z,979.25
2018-04-04T10:45:04.212Z,979.17
2018-04-04T10:46:04.209Z,979.18
2018-04-04T10:47:04.198Z,979.21
2018-04-04T10:48:04.194Z,979.15
2018-04-04T10:49:04.185Z,979.12
2018-04-04T10:50:04.177Z,979.09
2018-04-04T10:51:04.174Z,979.04
2018-04-04T10:52:04.169Z,978.98
2018-04-04T10:53:04.201Z,979.00
2018-04-04T10:54:04.150Z,979.01
2018-04-04T10:55:04.146Z,979.02
2018-04-04T10:56:04.135Z,979.10
2018-04-04T10:57:04.131Z,979.05
2018-04-04T10:58:04.130Z,979.05
2018-04-04T10:59:04.125Z,979.02
2018-04-04T11:00:04.125Z,978.97
2018-04-04T11:01:04.102Z,978.97
2018-04-04T11:02:04.099Z,978.95
2018-04-04T11:03:04.093Z,978.97
2018-04-04T11:04:04.083Z,979.00
2018-04-04T11:05:04.079Z,979.00
2018-04-04T11:06:04.075Z,978.99
2018-04-04T11:07:04.094Z,979.04
2018-04-04T11:08:04.059Z,979.04
2018-04-04T11:09:04.062Z,979.06
2018-04-04T11:10:04.045Z,979.05
2018-04-04T11:11:04.040Z,978.97
2018-04-04T11:12:04.030Z,979.00
2018-04-04T11:13:04.026Z,978.98
2018-04-04T11:14:04.019Z,978.97
2018-04-04T11:15:04.012Z,978.89
2018-04-04T11:16:04.009Z,978.87
2018-04-04T11:17:03.998Z,978.86
2018-04-04T11:18:03.991Z,978.85
2018-04-04T11:19:03.985Z,978.85
2018-04-04T11:20:03.979Z,978.86
2018-04-04T11:21:03.978Z,978.79
2018-04-04T11:22:03.970Z,978.76
2018-04-04T11:23:03.961Z,978.77
2018-04-04T11:24:03.960Z,978.74
2018-04-04T11:25:03.946Z,978.78
2018-04-04T11:26:03.938Z,978.79
2018-04-04T11:27:03.937Z,978.79
2018-04-04T11:28:03.931Z,978.80
2018-04-04T11:29:03.921Z,978.80
2018-04-04T11:30:03.913Z,978.78
2018-04-04T11:31:03.910Z,978.79
2018-04-04T11:32:03.924Z,978.69
2018-04-04T11:33:03.894Z,978.67
2018-04-04T11:34:03.887Z,978.65
2018-04-04T11:35:03.886Z,978.59
2018-04-04T11:36:03.887Z,978.57
2018-04-04T11:37:03.867Z,978.59
2018-04-04T11:38:03.860Z,978.62
2018-04-04T11:39:03.856Z,978.65
2018-04-04T11:40:03.848Z,978.65
2018-04-04T11:41:03.842Z,978.65
2018-04-04T11:42:03.837Z,978.64
2018-04-04T11:43:03.832Z,978.57
2018-04-04T11:44:03.857Z,978.59
2018-04-04T11:45:03.817Z,978.59
2018-04-04T11:46:03.813Z,978.61
2018-04-04T11:47:03.801Z,978.58
2018-04-04T11:48:03.806Z,978.56
2018-04-04T11:49:03.792Z,978.54
2018-04-04T11:50:03.787Z,978.52
2018-04-04T11:51:03.785Z,978.46
2018-04-04T11:52:03.772Z,978.46
2018-04-04T11:53:03.773Z,978.49
2018-04-04T11:54:03.762Z,978.47
2018-04-04T11:55:03.753Z,978.47
2018-04-04T11:56:03.746Z,978.44
2018-04-04T11:57:03.742Z,978.44
2018-04-04T11:58:03.737Z,978.41
2018-04-04T11:59:03.729Z,978.35
2018-04-04T12:00:03.746Z,978.36
2018-04-04T12:01:03.720Z,978.30
2018-04-04T12:02:03.710Z,978.28
2018-04-04T12:03:03.701Z,978.18
2018-04-04T12:04:03.696Z,978.17
2018-04-04T12:05:03.693Z,978.14
2018-04-04T12:06:03.688Z,978.14
2018-04-04T12:07:03.902Z,978.14
2018-04-04T12:08:03.670Z,978.11
2018-04-04T12:09:03.672Z,978.13
2018-04-04T12:10:03.660Z,978.13
2018-04-04T12:11:03.660Z,978.13
2018-04-04T12:12:03.645Z,978.09
2018-04-04T12:13:03.641Z,978.15
2018-04-04T12:14:03.633Z,978.10
2018-04-04T12:15:03.636Z,978.15
2018-04-04T12:16:03.621Z,978.09
2018-04-04T12:17:03.615Z,978.09
2018-04-04T12:18:03.608Z,978.08
2018-04-04T12:19:03.602Z,978.07
2018-04-04T12:20:03.595Z,978.09
2018-04-04T12:21:03.594Z,978.05
2018-04-04T12:22:03.582Z,978.04
2018-04-04T12:23:03.577Z,978.12
2018-04-04T12:24:03.568Z,978.08
2018-04-04T12:25:03.561Z,978.08
2018-04-04T12:26:03.557Z,978.07
2018-04-04T12:27:03.549Z,978.07
2018-04-04T12:28:03.545Z,978.04